sensor_id;sensor_type;location;lat;lon;timestamp;P1;durP1;ratioP1;P2;durP2;ratioP2
1376;SDS011;682;52.502;13.488;2023-08-01T00:01:13;6.50;;;4.60;;
1376;SDS011;682;52.502;13.488;2023-08-01T00:03:40;6.70;;;5.37;;
1376;SDS011;682;52.502;13.488;2023-08-01T00:06:07;5.70;;;5.20;;
1376;SDS011;682;52.502;13.488;2023-08-01T00:08:34;6.00;;;5.40;;
1376;SDS011;682;52.502;13.488;2023-08-01T00:11:01;7.73;;;5.70;;
1376;SDS011;682;52.502;13.488;2023-08-01T00:13:27;6.03;;;5.33;;
1376;SDS011;682;52.502;13.488;2023-08-01T00:15:54;6.20;;;5.00;;
1376;SDS011;682;52.502;13.488;2023-08-01T00:18:24;5.93;;;5.33;;
1376;SDS011;682;52.502;13.488;2023-08-01T00:20:54;6.83;;;5.10;;
1376;SDS011;682;52.502;13.488;2023-08-01T00:23:21;6.83;;;5.33;;
1376;SDS011;682;52.502;13.488;2023-08-01T00:25:48;6.17;;;5.00;;
1376;SDS011;682;52.502;13.488;2023-08-01T00:28:16;5.80;;;5.30;;
1376;SDS011;682;52.502;13.488;2023-08-01T00:30:44;6.77;;;5.00;;
1376;SDS011;682;52.502;13.488;2023-08-01T00:33:11;6.23;;;4.90;;
1376;SDS011;682;52.502;13.488;2023-08-01T00:45:46;4.87;;;4.30;;
1376;SDS011;682;52.502;13.488;2023-08-01T00:48:13;4.60;;;4.20;;
1376;SDS011;682;52.502;13.488;2023-08-01T00:50:40;4.30;;;3.93;;
1376;SDS011;682;52.502;13.488;2023-08-01T00:53:07;4.30;;;3.23;;
1376;SDS011;682;52.502;13.488;2023-08-01T00:55:34;4.10;;;3.70;;
1376;SDS011;682;52.502;13.488;2023-08-01T00:58:01;4.10;;;3.70;;
1376;SDS011;682;52.502;13.488;2023-08-01T01:00:29;3.80;;;3.50;;
1376;SDS011;682;52.502;13.488;2023-08-01T01:02:57;3.67;;;3.37;;
1376;SDS011;682;52.502;13.488;2023-08-01T01:05:26;4.23;;;3.63;;
1376;SDS011;682;52.502;13.488;2023-08-01T01:07:58;4.73;;;3.87;;
1376;SDS011;682;52.502;13.488;2023-08-01T01:10:28;4.40;;;4.00;;
1376;SDS011;682;52.502;13.488;2023-08-01T01:12:55;4.67;;;4.27;;
1376;SDS011;682;52.502;13.488;2023-08-01T01:15:22;4.47;;;3.90;;
1376;SDS011;682;52.502;13.488;2023-08-01T01:17:49;4.67;;;4.10;;
1376;SDS011;682;52.502;13.488;2023-08-01T01:20:20;4.53;;;4.13;;
1376;SDS011;682;52.502;13.488;2023-08-01T01:22:50;6.20;;;4.30;;
1376;SDS011;682;52.502;13.488;2023-08-01T01:25:19;4.33;;;3.93;;
1376;SDS011;682;52.502;13.488;2023-08-01T01:27:48;5.30;;;4.30;;
1376;SDS011;682;52.502;13.488;2023-08-01T01:30:18;5.57;;;4.10;;
1376;SDS011;682;52.502;13.488;2023-08-01T01:32:45;5.50;;;5.00;;
1376;SDS011;682;52.502;13.488;2023-08-01T01:35:12;5.27;;;4.07;;
1376;SDS011;682;52.502;13.488;2023-08-01T01:37:40;4.63;;;4.13;;
1376;SDS011;682;52.502;13.488;2023-08-01T01:40:09;9.00;;;5.03;;
1376;SDS011;682;52.502;13.488;2023-08-01T01:42:36;6.63;;;5.30;;
1376;SDS011;682;52.502;13.488;2023-08-01T01:45:03;6.90;;;5.50;;
1376;SDS011;682;52.502;13.488;2023-08-01T01:47:32;5.57;;;5.03;;
1376;SDS011;682;52.502;13.488;2023-08-01T01:50:03;5.20;;;4.70;;
1376;SDS011;682;52.502;13.488;2023-08-01T01:52:31;7.47;;;4.70;;
1376;SDS011;682;52.502;13.488;2023-08-01T01:54:58;5.70;;;5.20;;
1376;SDS011;682;52.502;13.488;2023-08-01T01:57:27;8.00;;;5.13;;
1376;SDS011;682;52.502;13.488;2023-08-01T01:59:54;6.23;;;5.63;;
1376;SDS011;682;52.502;13.488;2023-08-01T02:02:21;6.43;;;5.83;;
1376;SDS011;682;52.502;13.488;2023-08-01T02:04:50;8.03;;;5.60;;
1376;SDS011;682;52.502;13.488;2023-08-01T02:07:18;6.93;;;5.63;;
1376;SDS011;682;52.502;13.488;2023-08-01T02:09:45;7.33;;;6.20;;
1376;SDS011;682;52.502;13.488;2023-08-01T02:12:13;6.63;;;5.83;;
1376;SDS011;682;52.502;13.488;2023-08-01T02:14:41;6.10;;;5.50;;
1376;SDS011;682;52.502;13.488;2023-08-01T02:17:08;6.77;;;6.07;;
1376;SDS011;682;52.502;13.488;2023-08-01T02:19:35;6.07;;;5.40;;
1376;SDS011;682;52.502;13.488;2023-08-01T02:22:02;6.87;;;6.27;;
1376;SDS011;682;52.502;13.488;2023-08-01T02:24:31;6.80;;;5.70;;
1376;SDS011;682;52.502;13.488;2023-08-01T02:26:58;9.57;;;6.50;;
1376;SDS011;682;52.502;13.488;2023-08-01T02:29:25;6.23;;;5.73;;
1376;SDS011;682;52.502;13.488;2023-08-01T02:31:53;7.10;;;6.47;;
1376;SDS011;682;52.502;13.488;2023-08-01T02:34:21;6.30;;;5.70;;
1376;SDS011;682;52.502;13.488;2023-08-01T02:36:48;6.47;;;5.97;;
1376;SDS011;682;52.502;13.488;2023-08-01T02:39:15;7.17;;;6.57;;
1376;SDS011;682;52.502;13.488;2023-08-01T02:41:42;9.77;;;6.53;;
1376;SDS011;682;52.502;13.488;2023-08-01T02:44:09;6.00;;;5.50;;
1376;SDS011;682;52.502;13.488;2023-08-01T02:46:36;8.03;;;6.93;;
1376;SDS011;682;52.502;13.488;2023-08-01T02:49:04;8.07;;;7.00;;
1376;SDS011;682;52.502;13.488;2023-08-01T02:51:31;7.07;;;6.37;;
1376;SDS011;682;52.502;13.488;2023-08-01T02:53:58;8.80;;;6.63;;
1376;SDS011;682;52.502;13.488;2023-08-01T02:56:25;7.53;;;6.83;;
1376;SDS011;682;52.502;13.488;2023-08-01T02:58:52;9.67;;;6.50;;
1376;SDS011;682;52.502;13.488;2023-08-01T03:01:20;6.70;;;6.13;;
1376;SDS011;682;52.502;13.488;2023-08-01T03:03:47;6.10;;;5.50;;
1376;SDS011;682;52.502;13.488;2023-08-01T03:06:15;6.67;;;6.07;;
1376;SDS011;682;52.502;13.488;2023-08-01T03:08:43;7.53;;;6.57;;
1376;SDS011;682;52.502;13.488;2023-08-01T03:11:10;6.70;;;6.10;;
1376;SDS011;682;52.502;13.488;2023-08-01T03:13:37;6.80;;;6.20;;
1376;SDS011;682;52.502;13.488;2023-08-01T03:16:04;8.63;;;6.30;;
1376;SDS011;682;52.502;13.488;2023-08-01T03:18:30;6.43;;;5.40;;
1376;SDS011;682;52.502;13.488;2023-08-01T03:20:57;7.43;;;5.93;;
1376;SDS011;682;52.502;13.488;2023-08-01T03:23:26;5.93;;;5.43;;
1376;SDS011;682;52.502;13.488;2023-08-01T03:25:52;7.77;;;6.30;;
1376;SDS011;682;52.502;13.488;2023-08-01T03:28:19;7.90;;;5.70;;
1376;SDS011;682;52.502;13.488;2023-08-01T03:30:46;6.70;;;5.70;;
1376;SDS011;682;52.502;13.488;2023-08-01T03:33:15;6.33;;;5.80;;
1376;SDS011;682;52.502;13.488;2023-08-01T03:35:42;7.10;;;5.30;;
1376;SDS011;682;52.502;13.488;2023-08-01T03:38:09;6.23;;;5.73;;
1376;SDS011;682;52.502;13.488;2023-08-01T03:40:37;6.57;;;5.90;;
1376;SDS011;682;52.502;13.488;2023-08-01T03:43:04;6.67;;;5.20;;
1376;SDS011;682;52.502;13.488;2023-08-01T03:45:31;6.93;;;6.17;;
1376;SDS011;682;52.502;13.488;2023-08-01T03:47:59;6.67;;;5.90;;
1376;SDS011;682;52.502;13.488;2023-08-01T03:50:26;5.60;;;5.00;;
1376;SDS011;682;52.502;13.488;2023-08-01T03:52:55;6.50;;;5.90;;
1376;SDS011;682;52.502;13.488;2023-08-01T03:55:22;5.17;;;4.63;;
1376;SDS011;682;52.502;13.488;2023-08-01T03:57:50;6.67;;;6.03;;
1376;SDS011;682;52.502;13.488;2023-08-01T04:00:17;5.53;;;5.03;;
1376;SDS011;682;52.502;13.488;2023-08-01T04:02:44;6.00;;;5.50;;
1376;SDS011;682;52.502;13.488;2023-08-01T04:05:11;6.30;;;5.27;;
1376;SDS011;682;52.502;13.488;2023-08-01T04:07:38;5.40;;;5.00;;
1376;SDS011;682;52.502;13.488;2023-08-01T04:10:06;6.13;;;5.53;;
1376;SDS011;682;52.502;13.488;2023-08-01T04:12:34;6.37;;;5.60;;
1376;SDS011;682;52.502;13.488;2023-08-01T04:15:02;6.10;;;5.03;;
1376;SDS011;682;52.502;13.488;2023-08-01T04:17:30;5.27;;;4.60;;
1376;SDS011;682;52.502;13.488;2023-08-01T04:19:57;5.97;;;5.20;;
1376;SDS011;682;52.502;13.488;2023-08-01T04:22:24;5.60;;;4.97;;
1376;SDS011;682;52.502;13.488;2023-08-01T04:24:51;6.77;;;5.47;;
1376;SDS011;682;52.502;13.488;2023-08-01T04:27:18;5.73;;;5.13;;
1376;SDS011;682;52.502;13.488;2023-08-01T04:29:45;5.70;;;5.00;;
1376;SDS011;682;52.502;13.488;2023-08-01T04:32:14;5.40;;;4.90;;
1376;SDS011;682;52.502;13.488;2023-08-01T04:34:41;5.23;;;4.70;;
1376;SDS011;682;52.502;13.488;2023-08-01T04:37:08;4.53;;;4.00;;
1376;SDS011;682;52.502;13.488;2023-08-01T04:39:36;5.80;;;5.30;;
1376;SDS011;682;52.502;13.488;2023-08-01T04:42:03;6.97;;;5.63;;
1376;SDS011;682;52.502;13.488;2023-08-01T04:44:31;5.00;;;4.50;;
1376;SDS011;682;52.502;13.488;2023-08-01T04:46:58;6.60;;;4.53;;
1376;SDS011;682;52.502;13.488;2023-08-01T04:49:26;4.80;;;4.37;;
1376;SDS011;682;52.502;13.488;2023-08-01T04:51:53;5.40;;;4.90;;
1376;SDS011;682;52.502;13.488;2023-08-01T04:54:21;5.13;;;4.20;;
1376;SDS011;682;52.502;13.488;2023-08-01T04:56:48;5.97;;;4.17;;
1376;SDS011;682;52.502;13.488;2023-08-01T04:59:15;5.83;;;4.10;;
1376;SDS011;682;52.502;13.488;2023-08-01T05:01:42;5.50;;;4.90;;
1376;SDS011;682;52.502;13.488;2023-08-01T05:04:09;5.63;;;5.00;;
1376;SDS011;682;52.502;13.488;2023-08-01T05:06:38;5.00;;;4.50;;
1376;SDS011;682;52.502;13.488;2023-08-01T05:09:05;5.70;;;4.50;;
1376;SDS011;682;52.502;13.488;2023-08-01T05:11:32;5.93;;;4.67;;
1376;SDS011;682;52.502;13.488;2023-08-01T05:13:59;4.97;;;4.57;;
1376;SDS011;682;52.502;13.488;2023-08-01T05:16:26;5.83;;;5.30;;
1376;SDS011;682;52.502;13.488;2023-08-01T05:18:53;4.87;;;4.40;;
1376;SDS011;682;52.502;13.488;2023-08-01T05:21:20;5.87;;;4.83;;
1376;SDS011;682;52.502;13.488;2023-08-01T05:23:49;5.60;;;5.10;;
1376;SDS011;682;52.502;13.488;2023-08-01T05:26:16;4.57;;;4.17;;
1376;SDS011;682;52.502;13.488;2023-08-01T05:28:43;7.60;;;4.70;;
1376;SDS011;682;52.502;13.488;2023-08-01T05:31:10;6.67;;;5.10;;
1376;SDS011;682;52.502;13.488;2023-08-01T05:33:36;4.80;;;4.30;;
1376;SDS011;682;52.502;13.488;2023-08-01T05:36:04;7.23;;;4.60;;
1376;SDS011;682;52.502;13.488;2023-08-01T05:38:31;5.47;;;4.37;;
1376;SDS011;682;52.502;13.488;2023-08-01T05:40:59;4.80;;;4.40;;
1376;SDS011;682;52.502;13.488;2023-08-01T05:43:27;4.97;;;4.43;;
1376;SDS011;682;52.502;13.488;2023-08-01T05:45:54;5.17;;;4.53;;
1376;SDS011;682;52.502;13.488;2023-08-01T05:48:21;5.10;;;4.60;;
1376;SDS011;682;52.502;13.488;2023-08-01T05:50:48;5.60;;;5.00;;
1376;SDS011;682;52.502;13.488;2023-08-01T05:53:14;4.80;;;4.20;;
1376;SDS011;682;52.502;13.488;2023-08-01T05:55:41;4.60;;;4.20;;
1376;SDS011;682;52.502;13.488;2023-08-01T05:58:10;4.70;;;4.20;;
1376;SDS011;682;52.502;13.488;2023-08-01T06:00:36;4.83;;;4.30;;
1376;SDS011;682;52.502;13.488;2023-08-01T06:03:03;5.00;;;4.43;;
1376;SDS011;682;52.502;13.488;2023-08-01T06:05:30;4.90;;;4.50;;
1376;SDS011;682;52.502;13.488;2023-08-01T06:07:57;3.97;;;3.57;;
1376;SDS011;682;52.502;13.488;2023-08-01T06:10:24;4.20;;;3.80;;
1376;SDS011;682;52.502;13.488;2023-08-01T06:12:51;5.80;;;4.30;;
1376;SDS011;682;52.502;13.488;2023-08-01T06:15:19;7.70;;;4.90;;
1376;SDS011;682;52.502;13.488;2023-08-01T06:17:47;4.90;;;3.87;;
1376;SDS011;682;52.502;13.488;2023-08-01T06:20:14;6.33;;;4.27;;
1376;SDS011;682;52.502;13.488;2023-08-01T06:22:41;4.70;;;4.30;;
1376;SDS011;682;52.502;13.488;2023-08-01T06:25:08;6.00;;;5.50;;
1376;SDS011;682;52.502;13.488;2023-08-01T06:27:36;6.27;;;3.80;;
1376;SDS011;682;52.502;13.488;2023-08-01T06:30:03;5.20;;;3.93;;
1376;SDS011;682;52.502;13.488;2023-08-01T06:32:32;4.10;;;3.60;;
1376;SDS011;682;52.502;13.488;2023-08-01T06:35:00;4.77;;;4.00;;
1376;SDS011;682;52.502;13.488;2023-08-01T06:37:27;4.27;;;3.77;;
1376;SDS011;682;52.502;13.488;2023-08-01T06:39:54;4.47;;;3.90;;
1376;SDS011;682;52.502;13.488;2023-08-01T06:42:21;3.60;;;3.30;;
1376;SDS011;682;52.502;13.488;2023-08-01T06:44:48;3.97;;;3.67;;
1376;SDS011;682;52.502;13.488;2023-08-01T06:47:14;3.77;;;3.43;;
1376;SDS011;682;52.502;13.488;2023-08-01T06:49:43;4.80;;;4.40;;
1376;SDS011;682;52.502;13.488;2023-08-01T06:52:10;3.73;;;3.43;;
1376;SDS011;682;52.502;13.488;2023-08-01T06:54:36;4.60;;;3.87;;
1376;SDS011;682;52.502;13.488;2023-08-01T06:57:04;4.33;;;3.93;;
1376;SDS011;682;52.502;13.488;2023-08-01T06:59:32;5.03;;;3.90;;
1376;SDS011;682;52.502;13.488;2023-08-01T07:01:59;4.20;;;3.70;;
1376;SDS011;682;52.502;13.488;2023-08-01T07:04:27;3.77;;;3.47;;
1376;SDS011;682;52.502;13.488;2023-08-01T07:06:55;7.33;;;3.87;;
1376;SDS011;682;52.502;13.488;2023-08-01T07:09:22;4.27;;;3.80;;
1376;SDS011;682;52.502;13.488;2023-08-01T07:11:50;4.50;;;3.77;;
1376;SDS011;682;52.502;13.488;2023-08-01T07:14:17;4.27;;;3.87;;
1376;SDS011;682;52.502;13.488;2023-08-01T07:16:44;4.17;;;3.87;;
1376;SDS011;682;52.502;13.488;2023-08-01T07:19:11;4.10;;;3.70;;
1376;SDS011;682;52.502;13.488;2023-08-01T07:21:38;4.60;;;3.77;;
1376;SDS011;682;52.502;13.488;2023-08-01T07:24:06;3.67;;;3.23;;
1376;SDS011;682;52.502;13.488;2023-08-01T07:26:33;4.50;;;4.07;;
1376;SDS011;682;52.502;13.488;2023-08-01T07:29:00;5.13;;;4.67;;
1376;SDS011;682;52.502;13.488;2023-08-01T07:31:26;3.90;;;3.60;;
1376;SDS011;682;52.502;13.488;2023-08-01T07:33:53;5.47;;;4.50;;
1376;SDS011;682;52.502;13.488;2023-08-01T07:36:20;6.70;;;3.60;;
1376;SDS011;682;52.502;13.488;2023-08-01T07:38:47;4.90;;;3.40;;
1376;SDS011;682;52.502;13.488;2023-08-01T07:41:16;3.43;;;3.13;;
1376;SDS011;682;52.502;13.488;2023-08-01T07:43:43;3.87;;;3.53;;
1376;SDS011;682;52.502;13.488;2023-08-01T07:46:09;5.97;;;4.93;;
1376;SDS011;682;52.502;13.488;2023-08-01T07:48:36;3.60;;;3.30;;
1376;SDS011;682;52.502;13.488;2023-08-01T07:51:04;3.70;;;3.33;;
1376;SDS011;682;52.502;13.488;2023-08-01T07:53:32;2.77;;;2.57;;
1376;SDS011;682;52.502;13.488;2023-08-01T07:56:00;2.80;;;2.60;;
1376;SDS011;682;52.502;13.488;2023-08-01T07:58:29;4.83;;;3.20;;
1376;SDS011;682;52.502;13.488;2023-08-01T08:00:56;3.13;;;2.83;;
1376;SDS011;682;52.502;13.488;2023-08-01T08:03:23;3.70;;;2.77;;
1376;SDS011;682;52.502;13.488;2023-08-01T08:05:50;4.00;;;2.80;;
1376;SDS011;682;52.502;13.488;2023-08-01T08:08:17;3.90;;;3.00;;
1376;SDS011;682;52.502;13.488;2023-08-01T08:10:44;3.70;;;2.87;;
1376;SDS011;682;52.502;13.488;2023-08-01T08:13:12;3.37;;;2.63;;
1376;SDS011;682;52.502;13.488;2023-08-01T08:15:41;3.07;;;2.87;;
1376;SDS011;682;52.502;13.488;2023-08-01T08:18:08;5.00;;;2.87;;
1376;SDS011;682;52.502;13.488;2023-08-01T08:20:40;2.77;;;2.50;;
1376;SDS011;682;52.502;13.488;2023-08-01T08:23:08;4.00;;;2.37;;
1376;SDS011;682;52.502;13.488;2023-08-01T08:25:35;2.83;;;2.60;;
1376;SDS011;682;52.502;13.488;2023-08-01T08:28:03;3.00;;;2.50;;
1376;SDS011;682;52.502;13.488;2023-08-01T08:30:31;4.23;;;2.73;;
1376;SDS011;682;52.502;13.488;2023-08-01T08:33:00;2.67;;;2.47;;
1376;SDS011;682;52.502;13.488;2023-08-01T08:35:29;2.50;;;2.30;;
1376;SDS011;682;52.502;13.488;2023-08-01T08:37:57;2.67;;;2.23;;
1376;SDS011;682;52.502;13.488;2023-08-01T08:40:25;4.00;;;2.27;;
1376;SDS011;682;52.502;13.488;2023-08-01T08:42:52;3.57;;;2.50;;
1376;SDS011;682;52.502;13.488;2023-08-01T08:45:19;3.60;;;3.30;;
1376;SDS011;682;52.502;13.488;2023-08-01T08:47:49;4.10;;;3.20;;
1376;SDS011;682;52.502;13.488;2023-08-01T08:50:24;2.97;;;2.27;;
1376;SDS011;682;52.502;13.488;2023-08-01T08:52:53;2.43;;;2.23;;
1376;SDS011;682;52.502;13.488;2023-08-01T08:55:20;3.17;;;2.10;;
1376;SDS011;682;52.502;13.488;2023-08-01T08:57:48;4.87;;;2.10;;
1376;SDS011;682;52.502;13.488;2023-08-01T09:00:17;3.10;;;2.10;;
1376;SDS011;682;52.502;13.488;2023-08-01T09:02:44;3.50;;;2.23;;
1376;SDS011;682;52.502;13.488;2023-08-01T09:05:12;6.40;;;3.00;;
1376;SDS011;682;52.502;13.488;2023-08-01T09:07:41;2.93;;;2.30;;
1376;SDS011;682;52.502;13.488;2023-08-01T09:10:10;2.90;;;2.30;;
1376;SDS011;682;52.502;13.488;2023-08-01T09:12:37;4.07;;;2.70;;
1376;SDS011;682;52.502;13.488;2023-08-01T09:15:04;2.30;;;2.10;;
1376;SDS011;682;52.502;13.488;2023-08-01T09:17:31;2.10;;;1.73;;
1376;SDS011;682;52.502;13.488;2023-08-01T09:20:03;1.87;;;1.63;;
1376;SDS011;682;52.502;13.488;2023-08-01T09:22:42;2.30;;;2.10;;
1376;SDS011;682;52.502;13.488;2023-08-01T09:25:10;2.00;;;1.80;;
1376;SDS011;682;52.502;13.488;2023-08-01T09:27:37;1.70;;;1.60;;
1376;SDS011;682;52.502;13.488;2023-08-01T09:30:07;1.43;;;1.33;;
1376;SDS011;682;52.502;13.488;2023-08-01T09:32:36;2.00;;;1.70;;
1376;SDS011;682;52.502;13.488;2023-08-01T09:35:04;2.20;;;1.40;;
1376;SDS011;682;52.502;13.488;2023-08-01T09:37:39;2.40;;;1.30;;
1376;SDS011;682;52.502;13.488;2023-08-01T09:40:18;1.50;;;1.10;;
1376;SDS011;682;52.502;13.488;2023-08-01T09:42:46;1.27;;;1.10;;
1376;SDS011;682;52.502;13.488;2023-08-01T09:45:13;1.80;;;1.10;;
1376;SDS011;682;52.502;13.488;2023-08-01T09:47:40;2.70;;;1.50;;
1376;SDS011;682;52.502;13.488;2023-08-01T09:50:08;2.13;;;1.27;;
1376;SDS011;682;52.502;13.488;2023-08-01T09:52:36;1.50;;;1.40;;
1376;SDS011;682;52.502;13.488;2023-08-01T09:55:05;1.90;;;1.00;;
1376;SDS011;682;52.502;13.488;2023-08-01T09:57:32;4.13;;;1.27;;
1376;SDS011;682;52.502;13.488;2023-08-01T10:00:06;1.20;;;1.10;;
1376;SDS011;682;52.502;13.488;2023-08-01T10:02:35;1.20;;;0.90;;
1376;SDS011;682;52.502;13.488;2023-08-01T10:05:04;1.50;;;0.97;;
1376;SDS011;682;52.502;13.488;2023-08-01T10:07:32;1.77;;;1.57;;
1376;SDS011;682;52.502;13.488;2023-08-01T10:10:01;2.07;;;0.90;;
1376;SDS011;682;52.502;13.488;2023-08-01T10:12:30;1.30;;;1.20;;
1376;SDS011;682;52.502;13.488;2023-08-01T10:14:58;1.10;;;1.00;;
1376;SDS011;682;52.502;13.488;2023-08-01T10:17:26;2.13;;;1.40;;
1376;SDS011;682;52.502;13.488;2023-08-01T10:19:55;1.40;;;1.07;;
1376;SDS011;682;52.502;13.488;2023-08-01T10:22:24;1.10;;;1.00;;
1376;SDS011;682;52.502;13.488;2023-08-01T10:24:51;1.03;;;0.83;;
1376;SDS011;682;52.502;13.488;2023-08-01T10:27:20;1.30;;;1.20;;
1376;SDS011;682;52.502;13.488;2023-08-01T10:29:57;2.47;;;1.80;;
1376;SDS011;682;52.502;13.488;2023-08-01T10:32:27;1.30;;;1.20;;
1376;SDS011;682;52.502;13.488;2023-08-01T10:34:57;2.53;;;1.27;;
1376;SDS011;682;52.502;13.488;2023-08-01T10:37:24;1.60;;;1.30;;
1376;SDS011;682;52.502;13.488;2023-08-01T10:39:58;2.10;;;1.70;;
1376;SDS011;682;52.502;13.488;2023-08-01T10:42:25;1.73;;;1.00;;
1376;SDS011;682;52.502;13.488;2023-08-01T10:45:07;1.80;;;1.20;;
1376;SDS011;682;52.502;13.488;2023-08-01T10:47:46;2.00;;;1.10;;
1376;SDS011;682;52.502;13.488;2023-08-01T10:50:13;4.10;;;1.77;;
1376;SDS011;682;52.502;13.488;2023-08-01T10:52:41;1.43;;;1.30;;
1376;SDS011;682;52.502;13.488;2023-08-01T10:55:09;4.57;;;1.50;;
1376;SDS011;682;52.502;13.488;2023-08-01T10:57:38;3.97;;;1.70;;
1376;SDS011;682;52.502;13.488;2023-08-01T11:00:08;2.37;;;1.40;;
1376;SDS011;682;52.502;13.488;2023-08-01T11:02:36;2.20;;;1.60;;
1376;SDS011;682;52.502;13.488;2023-08-01T11:05:04;2.30;;;1.87;;
1376;SDS011;682;52.502;13.488;2023-08-01T11:07:32;2.00;;;1.20;;
1376;SDS011;682;52.502;13.488;2023-08-01T11:10:04;2.00;;;1.87;;
1376;SDS011;682;52.502;13.488;2023-08-01T11:12:33;1.70;;;1.30;;
1376;SDS011;682;52.502;13.488;2023-08-01T11:15:02;3.70;;;3.00;;
1376;SDS011;682;52.502;13.488;2023-08-01T11:17:32;1.40;;;1.20;;
1376;SDS011;682;52.502;13.488;2023-08-01T11:20:00;2.17;;;1.73;;
1376;SDS011;682;52.502;13.488;2023-08-01T11:22:29;1.67;;;1.57;;
1376;SDS011;682;52.502;13.488;2023-08-01T11:24:57;1.70;;;1.60;;
1376;SDS011;682;52.502;13.488;2023-08-01T11:27:24;2.43;;;1.70;;
1376;SDS011;682;52.502;13.488;2023-08-01T11:29:52;1.80;;;1.47;;
1376;SDS011;682;52.502;13.488;2023-08-01T11:32:20;2.60;;;2.00;;
1376;SDS011;682;52.502;13.488;2023-08-01T11:34:49;2.17;;;1.70;;
1376;SDS011;682;52.502;13.488;2023-08-01T11:37:18;1.60;;;1.50;;
1376;SDS011;682;52.502;13.488;2023-08-01T11:39:45;1.70;;;1.50;;
1376;SDS011;682;52.502;13.488;2023-08-01T11:42:14;1.80;;;1.70;;
1376;SDS011;682;52.502;13.488;2023-08-01T11:44:42;4.30;;;2.63;;
1376;SDS011;682;52.502;13.488;2023-08-01T11:47:11;2.93;;;2.70;;
1376;SDS011;682;52.502;13.488;2023-08-01T11:49:44;3.70;;;2.43;;
1376;SDS011;682;52.502;13.488;2023-08-01T11:52:22;3.70;;;3.40;;
1376;SDS011;682;52.502;13.488;2023-08-01T11:54:50;5.40;;;4.90;;
1376;SDS011;682;52.502;13.488;2023-08-01T11:57:17;3.50;;;3.10;;
1376;SDS011;682;52.502;13.488;2023-08-01T11:59:47;4.53;;;3.37;;
1376;SDS011;682;52.502;13.488;2023-08-01T12:02:24;4.63;;;3.60;;
1376;SDS011;682;52.502;13.488;2023-08-01T12:04:52;4.30;;;3.40;;
1376;SDS011;682;52.502;13.488;2023-08-01T12:07:20;4.87;;;3.60;;
1376;SDS011;682;52.502;13.488;2023-08-01T12:09:56;4.07;;;3.67;;
1376;SDS011;682;52.502;13.488;2023-08-01T12:12:23;4.10;;;3.70;;
1376;SDS011;682;52.502;13.488;2023-08-01T12:14:52;5.20;;;4.20;;
1376;SDS011;682;52.502;13.488;2023-08-01T12:17:20;3.70;;;3.27;;
1376;SDS011;682;52.502;13.488;2023-08-01T12:19:48;3.90;;;3.37;;
1376;SDS011;682;52.502;13.488;2023-08-01T12:22:15;3.97;;;3.67;;
1376;SDS011;682;52.502;13.488;2023-08-01T12:24:42;3.60;;;3.30;;
1376;SDS011;682;52.502;13.488;2023-08-01T12:27:10;4.50;;;3.00;;
1376;SDS011;682;52.502;13.488;2023-08-01T12:29:37;4.90;;;3.73;;
1376;SDS011;682;52.502;13.488;2023-08-01T12:32:04;5.10;;;3.80;;
1376;SDS011;682;52.502;13.488;2023-08-01T12:34:33;3.77;;;3.47;;
1376;SDS011;682;52.502;13.488;2023-08-01T12:37:00;4.30;;;3.90;;
1376;SDS011;682;52.502;13.488;2023-08-01T12:39:27;4.53;;;3.70;;
1376;SDS011;682;52.502;13.488;2023-08-01T12:41:54;4.67;;;3.93;;
1376;SDS011;682;52.502;13.488;2023-08-01T12:44:23;4.10;;;3.60;;
1376;SDS011;682;52.502;13.488;2023-08-01T12:46:49;4.03;;;3.73;;
1376;SDS011;682;52.502;13.488;2023-08-01T12:49:17;3.80;;;3.07;;
1376;SDS011;682;52.502;13.488;2023-08-01T12:51:45;4.37;;;3.17;;
1376;SDS011;682;52.502;13.488;2023-08-01T12:54:12;6.20;;;3.50;;
1376;SDS011;682;52.502;13.488;2023-08-01T12:56:38;5.93;;;3.40;;
1376;SDS011;682;52.502;13.488;2023-08-01T12:59:06;4.33;;;3.40;;
1376;SDS011;682;52.502;13.488;2023-08-01T13:01:34;5.20;;;3.70;;
1376;SDS011;682;52.502;13.488;2023-08-01T13:04:01;6.50;;;3.90;;
1376;SDS011;682;52.502;13.488;2023-08-01T13:06:29;4.10;;;3.80;;
1376;SDS011;682;52.502;13.488;2023-08-01T13:08:56;4.13;;;3.73;;
1376;SDS011;682;52.502;13.488;2023-08-01T13:11:23;4.60;;;4.07;;
1376;SDS011;682;52.502;13.488;2023-08-01T13:13:52;4.73;;;4.30;;
1376;SDS011;682;52.502;13.488;2023-08-01T13:16:19;4.17;;;3.37;;
1376;SDS011;682;52.502;13.488;2023-08-01T13:18:47;4.37;;;3.67;;
1376;SDS011;682;52.502;13.488;2023-08-01T13:21:14;3.70;;;3.40;;
1376;SDS011;682;52.502;13.488;2023-08-01T13:23:41;4.87;;;3.90;;
1376;SDS011;682;52.502;13.488;2023-08-01T13:26:08;4.80;;;3.37;;
1376;SDS011;682;52.502;13.488;2023-08-01T13:28:35;5.83;;;3.87;;
1376;SDS011;682;52.502;13.488;2023-08-01T13:31:04;4.00;;;3.23;;
1376;SDS011;682;52.502;13.488;2023-08-01T13:33:31;4.37;;;3.97;;
1376;SDS011;682;52.502;13.488;2023-08-01T13:35:59;3.63;;;3.30;;
1376;SDS011;682;52.502;13.488;2023-08-01T13:38:26;4.30;;;3.23;;
1376;SDS011;682;52.502;13.488;2023-08-01T13:40:53;3.70;;;3.30;;
1376;SDS011;682;52.502;13.488;2023-08-01T13:43:20;3.87;;;3.53;;
1376;SDS011;682;52.502;13.488;2023-08-01T13:45:47;3.50;;;3.23;;
1376;SDS011;682;52.502;13.488;2023-08-01T13:48:14;4.47;;;3.23;;
1376;SDS011;682;52.502;13.488;2023-08-01T13:50:41;3.87;;;2.93;;
1376;SDS011;682;52.502;13.488;2023-08-01T13:53:09;4.07;;;3.37;;
1376;SDS011;682;52.502;13.488;2023-08-01T13:55:39;3.07;;;2.87;;
1376;SDS011;682;52.502;13.488;2023-08-01T13:58:06;3.07;;;2.87;;
1376;SDS011;682;52.502;13.488;2023-08-01T14:00:33;3.80;;;3.27;;
1376;SDS011;682;52.502;13.488;2023-08-01T14:03:00;3.33;;;3.03;;
1376;SDS011;682;52.502;13.488;2023-08-01T14:05:27;4.93;;;3.37;;
1376;SDS011;682;52.502;13.488;2023-08-01T14:07:54;3.37;;;3.17;;
1376;SDS011;682;52.502;13.488;2023-08-01T14:10:23;3.00;;;2.80;;
1376;SDS011;682;52.502;13.488;2023-08-01T14:12:50;4.77;;;3.17;;
1376;SDS011;682;52.502;13.488;2023-08-01T14:15:17;4.03;;;3.23;;
1376;SDS011;682;52.502;13.488;2023-08-01T14:17:45;3.50;;;3.20;;
1376;SDS011;682;52.502;13.488;2023-08-01T14:20:12;3.40;;;3.00;;
1376;SDS011;682;52.502;13.488;2023-08-01T14:22:40;6.53;;;4.53;;
1376;SDS011;682;52.502;13.488;2023-08-01T14:25:08;3.87;;;3.03;;
1376;SDS011;682;52.502;13.488;2023-08-01T14:27:37;4.50;;;3.27;;
1376;SDS011;682;52.502;13.488;2023-08-01T14:30:04;2.93;;;2.63;;
1376;SDS011;682;52.502;13.488;2023-08-01T14:32:33;3.10;;;2.70;;
1376;SDS011;682;52.502;13.488;2023-08-01T14:35:05;5.33;;;3.40;;
1376;SDS011;682;52.502;13.488;2023-08-01T14:37:33;3.23;;;2.93;;
1376;SDS011;682;52.502;13.488;2023-08-01T14:40:00;4.53;;;4.00;;
1376;SDS011;682;52.502;13.488;2023-08-01T14:42:28;3.43;;;3.00;;
1376;SDS011;682;52.502;13.488;2023-08-01T14:44:56;4.30;;;3.90;;
1376;SDS011;682;52.502;13.488;2023-08-01T14:47:23;3.60;;;3.30;;
1376;SDS011;682;52.502;13.488;2023-08-01T14:49:50;3.13;;;2.90;;
1376;SDS011;682;52.502;13.488;2023-08-01T14:52:17;3.43;;;3.23;;
1376;SDS011;682;52.502;13.488;2023-08-01T14:54:44;3.07;;;2.47;;
1376;SDS011;682;52.502;13.488;2023-08-01T14:57:11;3.10;;;2.90;;
1376;SDS011;682;52.502;13.488;2023-08-01T14:59:38;3.97;;;3.10;;
1376;SDS011;682;52.502;13.488;2023-08-01T15:02:07;3.03;;;2.50;;
1376;SDS011;682;52.502;13.488;2023-08-01T15:04:34;3.20;;;2.90;;
1376;SDS011;682;52.502;13.488;2023-08-01T15:07:01;4.30;;;3.50;;
1376;SDS011;682;52.502;13.488;2023-08-01T15:09:29;3.97;;;2.87;;
1376;SDS011;682;52.502;13.488;2023-08-01T15:11:56;3.10;;;2.80;;
1376;SDS011;682;52.502;13.488;2023-08-01T15:14:24;3.30;;;2.97;;
1376;SDS011;682;52.502;13.488;2023-08-01T15:16:51;2.70;;;2.50;;
1376;SDS011;682;52.502;13.488;2023-08-01T15:19:22;3.17;;;2.87;;
1376;SDS011;682;52.502;13.488;2023-08-01T15:21:49;4.97;;;3.20;;
1376;SDS011;682;52.502;13.488;2023-08-01T15:24:17;6.40;;;4.23;;
1376;SDS011;682;52.502;13.488;2023-08-01T15:26:44;3.80;;;2.57;;
1376;SDS011;682;52.502;13.488;2023-08-01T15:29:11;4.23;;;2.60;;